createdAt,value
2022-12-14T00:01:24.645Z,91144.28
2022-12-14T00:03:51.543Z,91148.88
2022-12-14T00:06:19.275Z,91157.19
2022-12-14T00:08:46.898Z,91147.16
2022-12-14T00:11:14.415Z,91151.75
2022-12-14T00:13:41.371Z,91157.19
2022-12-14T00:16:08.711Z,91148.44
2022-12-14T00:18:35.456Z,91155.06
2022-12-14T00:21:06.844Z,91153.84
2022-12-14T00:23:38.742Z,91163.22
2022-12-14T00:26:20.286Z,91157.81
2022-12-14T00:28:47.392Z,91168.69
2022-12-14T00:31:14.161Z,91179.50
2022-12-14T00:33:40.932Z,91169.16
2022-12-14T00:36:08.784Z,91165.59
2022-12-14T00:38:36.086Z,91171.75
2022-12-14T00:41:02.656Z,91168.13
2022-12-14T00:43:29.397Z,91166.03
2022-12-14T00:45:56.147Z,91172.22
2022-12-14T00:48:23.223Z,91162.44
2022-12-14T00:50:50.455Z,91165.56
2022-12-14T00:53:17.457Z,91162.22
2022-12-14T00:55:49.293Z,91175.63
2022-12-14T00:58:18.391Z,91172.97
2022-12-14T01:00:45.017Z,91174.75
2022-12-14T01:03:12.078Z,91160.25
2022-12-14T01:05:39.338Z,91176.50
2022-12-14T01:08:06.466Z,91163.91
2022-12-14T01:10:33.170Z,91163.84
2022-12-14T01:12:59.846Z,91156.19
2022-12-14T01:15:26.446Z,91148.19
2022-12-14T01:17:53.140Z,91162.81
2022-12-14T01:20:19.805Z,91162.34
2022-12-14T01:22:46.559Z,91162.03
2022-12-14T01:25:13.111Z,91158.66
2022-12-14T01:27:39.729Z,91162.59
2022-12-14T01:30:06.989Z,91154.00
2022-12-14T01:32:34.461Z,91155.84
2022-12-14T01:35:01.017Z,91151.78
2022-12-14T01:37:28.913Z,91147.09
2022-12-14T01:39:55.705Z,91153.34
2022-12-14T01:42:22.443Z,91151.19
2022-12-14T01:44:54.339Z,91148.88
2022-12-14T01:47:41.732Z,91147.22
2022-12-14T01:50:23.805Z,91155.41
2022-12-14T01:52:50.779Z,91156.25
2022-12-14T01:55:37.901Z,91156.50
2022-12-14T01:58:09.551Z,91148.25
2022-12-14T02:00:36.624Z,91148.31
2022-12-14T02:03:17.991Z,91140.44
2022-12-14T02:05:47.354Z,91137.31
2022-12-14T02:08:14.182Z,91135.28
2022-12-14T02:10:40.889Z,91141.91
2022-12-14T02:13:18.367Z,91147.63
2022-12-14T02:15:45.079Z,91141.28
2022-12-14T02:18:14.392Z,91134.69
2022-12-14T02:20:59.807Z,91136.69
2022-12-14T02:23:34.211Z,91132.81
2022-12-14T02:26:26.166Z,91131.09
2022-12-14T02:29:23.721Z,91125.88
2022-12-14T02:32:44.558Z,91118.69
2022-12-14T02:35:29.821Z,91133.13
2022-12-14T02:38:19.853Z,91126.59
2022-12-14T02:41:10.869Z,91120.13
2022-12-14T02:43:55.016Z,91124.31
2022-12-14T02:46:33.302Z,91125.75
2022-12-14T02:49:18.493Z,91123.13
2022-12-14T02:52:23.373Z,91127.38
2022-12-14T02:54:59.154Z,91116.88
2022-12-14T02:57:28.620Z,91116.47
2022-12-14T02:59:56.644Z,91122.50
2022-12-14T03:02:23.720Z,91114.19
2022-12-14T03:04:50.436Z,91123.50
2022-12-14T03:07:49.558Z,91119.81
2022-12-14T03:10:28.348Z,91120.03
2022-12-14T03:12:57.676Z,91122.94
2022-12-14T03:15:24.951Z,91117.31
2022-12-14T03:17:52.954Z,91125.31
2022-12-14T03:20:22.391Z,91129.25
2022-12-14T03:23:08.340Z,91126.56
2022-12-14T03:25:40.751Z,91111.47
2022-12-14T03:28:18.785Z,91122.59
2022-12-14T03:31:00.541Z,91119.25
2022-12-14T03:33:28.039Z,91120.94
2022-12-14T03:36:02.409Z,91114.75
2022-12-14T03:38:29.077Z,91110.44
2022-12-14T03:40:55.657Z,91102.41
2022-12-14T03:43:29.036Z,91112.19
2022-12-14T03:45:58.961Z,91117.31
2022-12-14T03:48:39.895Z,91105.16
2022-12-14T03:51:06.538Z,91106.03
2022-12-14T03:53:41.597Z,91126.97
2022-12-14T03:56:34.335Z,91123.97
2022-12-14T03:59:10.796Z,91124.72
2022-12-14T04:01:49.672Z,91118.38
2022-12-14T04:04:22.966Z,91105.72
2022-12-14T04:06:57.320Z,91098.78
2022-12-14T04:09:48.218Z,91106.66
2022-12-14T04:12:40.770Z,91114.00
2022-12-14T04:15:31.779Z,91116.41
2022-12-14T04:18:19.395Z,91121.16
2022-12-14T04:20:49.505Z,91122.69
2022-12-14T04:23:52.878Z,91114.97
2022-12-14T04:26:32.113Z,91111.09
2022-12-14T04:29:23.218Z,91124.25
2022-12-14T04:31:53.088Z,91132.97
2022-12-14T04:34:21.249Z,91138.53
2022-12-14T04:36:56.139Z,91134.56
2022-12-14T04:39:27.015Z,91141.22
2022-12-14T04:41:53.771Z,91145.41
2022-12-14T04:44:24.603Z,91150.97
2022-12-14T04:46:51.207Z,91133.44
2022-12-14T04:49:19.362Z,91136.53
2022-12-14T04:51:49.848Z,91128.59
2022-12-14T04:54:19.448Z,91132.91
2022-12-14T04:56:58.485Z,91126.66
2022-12-14T04:59:25.147Z,91126.09
2022-12-14T05:02:30.845Z,91132.47
2022-12-14T05:05:04.570Z,91128.88
2022-12-14T05:07:49.787Z,91132.22
2022-12-14T05:10:39.846Z,91136.09
2022-12-14T05:13:06.415Z,91133.25
2022-12-14T05:16:03.457Z,91134.91
2022-12-14T05:18:30.158Z,91129.25
2022-12-14T05:20:56.758Z,91126.47
2022-12-14T05:23:23.379Z,91142.22
2022-12-14T05:25:50.116Z,91158.94
2022-12-14T05:28:16.763Z,91155.63
2022-12-14T05:30:49.034Z,91156.72
2022-12-14T05:33:19.980Z,91145.81
2022-12-14T05:35:46.697Z,91134.78
2022-12-14T05:38:16.177Z,91144.94
2022-12-14T05:40:42.866Z,91159.66
2022-12-14T05:43:11.200Z,91167.50
2022-12-14T05:45:37.920Z,91165.53
2022-12-14T05:48:04.849Z,91163.25
2022-12-14T05:50:31.476Z,91160.97
2022-12-14T05:52:58.037Z,91173.22
2022-12-14T05:55:25.142Z,91173.72
2022-12-14T05:57:51.833Z,91175.72
2022-12-14T06:00:18.760Z,91173.06
2022-12-14T06:02:45.455Z,91163.72
2022-12-14T06:05:12.090Z,91172.84
2022-12-14T06:07:39.721Z,91174.19
2022-12-14T06:10:06.785Z,91173.47
2022-12-14T06:12:33.482Z,91175.88
2022-12-14T06:15:00.051Z,91168.06
2022-12-14T06:17:26.734Z,91163.19
2022-12-14T06:19:53.406Z,91168.47
2022-12-14T06:22:20.828Z,91160.78
2022-12-14T06:24:47.583Z,91173.59
2022-12-14T06:27:14.145Z,91174.09
2022-12-14T06:29:40.839Z,91176.06
2022-12-14T06:32:07.499Z,91167.25
2022-12-14T06:34:38.544Z,91175.56
2022-12-14T06:37:06.536Z,91174.56
2022-12-14T06:39:33.175Z,91180.28
2022-12-14T06:41:59.781Z,91173.94
2022-12-14T06:44:26.499Z,91175.50
2022-12-14T06:46:53.246Z,91182.50
2022-12-14T06:49:20.074Z,91208.53
2022-12-14T06:51:46.787Z,91217.38
2022-12-14T06:54:13.746Z,91217.78
2022-12-14T06:56:40.675Z,91208.41
2022-12-14T06:59:08.842Z,91212.31
2022-12-14T07:01:35.809Z,91204.56
2022-12-14T07:04:02.549Z,91193.97
2022-12-14T07:06:33.493Z,91194.72
2022-12-14T07:09:00.356Z,91202.47
2022-12-14T07:11:27.523Z,91195.47
2022-12-14T07:13:54.453Z,91196.56
2022-12-14T07:16:25.229Z,91181.47
2022-12-14T07:18:52.433Z,91186.53
2022-12-14T07:21:19.665Z,91196.41
2022-12-14T07:23:46.905Z,91190.72
2022-12-14T07:26:15.523Z,91182.34
2022-12-14T07:28:42.365Z,91186.19
2022-12-14T07:31:15.955Z,91188.56
2022-12-14T07:33:42.937Z,91190.34
2022-12-14T07:36:14.277Z,91199.03
2022-12-14T07:38:40.973Z,91216.00
2022-12-14T07:41:12.405Z,91213.91
2022-12-14T07:43:39.785Z,91216.66
2022-12-14T07:46:11.792Z,91219.66
2022-12-14T07:48:38.414Z,91220.84
2022-12-14T07:51:09.258Z,91215.66
2022-12-14T07:53:36.189Z,91218.81
2022-12-14T07:56:04.819Z,91228.81
2022-12-14T07:58:32.713Z,91229.50
2022-12-14T08:01:14.702Z,91244.31
2022-12-14T08:04:02.168Z,91253.72
2022-12-14T08:06:29.567Z,91240.13
2022-12-14T08:08:56.390Z,91254.44
2022-12-14T08:11:23.341Z,91260.63
2022-12-14T08:14:05.987Z,91251.06
2022-12-14T08:16:32.799Z,91249.00
2022-12-14T08:18:59.645Z,91240.41
2022-12-14T08:21:26.633Z,91241.47
2022-12-14T08:23:54.457Z,91237.38
2022-12-14T08:26:21.243Z,91225.53
2022-12-14T08:28:48.668Z,91225.53
2022-12-14T08:31:17.331Z,91245.63
2022-12-14T08:33:44.263Z,91247.75
2022-12-14T08:36:12.581Z,91260.56
2022-12-14T08:38:40.006Z,91240.41
2022-12-14T08:41:08.251Z,91242.03
2022-12-14T08:43:35.087Z,91244.25
2022-12-14T08:46:01.828Z,91234.75
2022-12-14T08:48:28.483Z,91223.91
2022-12-14T08:50:55.135Z,91218.84
2022-12-14T08:53:21.804Z,91228.59
2022-12-14T08:55:48.522Z,91229.16
2022-12-14T08:58:15.099Z,91224.75
2022-12-14T09:00:41.910Z,91213.03
2022-12-14T09:03:08.644Z,91213.63
2022-12-14T09:05:35.532Z,91217.22
2022-12-14T09:08:02.164Z,91227.47
2022-12-14T09:10:28.838Z,91224.56
2022-12-14T09:12:55.531Z,91217.69
2022-12-14T09:15:22.216Z,91220.19
2022-12-14T09:17:49.785Z,91232.13
2022-12-14T09:20:16.542Z,91255.31
2022-12-14T09:22:43.404Z,91244.00
2022-12-14T09:25:10.041Z,91236.91
2022-12-14T09:27:36.741Z,91227.19
2022-12-14T09:30:03.851Z,91223.66
2022-12-14T09:32:30.484Z,91234.28
2022-12-14T09:34:59.535Z,91240.16
2022-12-14T09:37:26.140Z,91227.78
2022-12-14T09:40:12.766Z,91231.38
2022-12-14T09:42:56.042Z,91233.91
2022-12-14T09:45:27.945Z,91232.53
2022-12-14T09:48:16.783Z,91232.72
2022-12-14T09:50:43.507Z,91246.25
2022-12-14T09:53:12.899Z,91240.03
2022-12-14T09:55:43.959Z,91230.78
2022-12-14T09:58:25.113Z,91221.53
2022-12-14T10:00:59.448Z,91223.38
2022-12-14T10:04:03.472Z,91217.63
2022-12-14T10:07:08.938Z,91202.84
2022-12-14T10:09:40.548Z,91201.94
2022-12-14T10:12:48.002Z,91196.75
2022-12-14T10:15:20.469Z,91191.03
2022-12-14T10:18:49.567Z,91202.94
2022-12-14T10:21:15.195Z,91186.44
2022-12-14T10:23:44.606Z,91185.94
2022-12-14T10:26:15.094Z,91179.75
2022-12-14T10:28:48.984Z,91175.06
2022-12-14T10:31:16.960Z,91174.78
2022-12-14T10:33:45.103Z,91179.44
2022-12-14T10:36:14.674Z,91164.44
2022-12-14T10:39:01.848Z,91157.22
2022-12-14T10:41:40.441Z,91155.94
2022-12-14T10:44:28.061Z,91139.66
2022-12-14T10:46:59.762Z,91136.81
2022-12-14T10:49:36.874Z,91133.16
2022-12-14T10:52:17.304Z,91135.53
2022-12-14T10:54:46.953Z,91138.09
2022-12-14T10:57:23.375Z,91154.13
2022-12-14T11:00:05.765Z,91151.81
2022-12-14T11:02:39.145Z,91148.72
2022-12-14T11:05:37.503Z,91144.56
2022-12-14T11:08:07.841Z,91144.50
2022-12-14T11:10:36.247Z,91147.59
2022-12-14T11:13:06.186Z,91148.41
2022-12-14T11:15:43.976Z,91148.09
2022-12-14T11:18:16.506Z,91147.59
2022-12-14T11:20:54.494Z,91140.94
2022-12-14T11:23:37.950Z,91125.38
2022-12-14T11:26:16.428Z,91128.00
2022-12-14T11:28:43.434Z,91131.63
2022-12-14T11:31:46.653Z,91141.47
2022-12-14T11:34:34.587Z,91136.78
2022-12-14T11:37:14.202Z,91125.91
2022-12-14T11:39:42.356Z,91119.66
2022-12-14T11:42:15.947Z,91119.16
2022-12-14T11:44:42.717Z,91112.47
2022-12-14T11:47:16.930Z,91115.06
2022-12-14T11:49:45.889Z,91118.94
2022-12-14T11:52:14.550Z,91110.38
2022-12-14T11:54:49.641Z,91119.69
2022-12-14T11:57:26.019Z,91113.25
2022-12-14T11:59:58.122Z,91095.88
2022-12-14T12:02:37.730Z,91104.16
2022-12-14T12:05:11.384Z,91107.75
2022-12-14T12:07:40.545Z,91111.84
2022-12-14T12:10:36.364Z,91105.56
2022-12-14T12:13:06.406Z,91109.94
2022-12-14T12:15:50.011Z,91114.88
2022-12-14T12:18:35.994Z,91127.94
2022-12-14T12:21:36.534Z,91115.53
2022-12-14T12:24:09.473Z,91116.09
2022-12-14T12:26:41.760Z,91106.75
2022-12-14T12:29:20.464Z,91105.19
2022-12-14T12:32:08.401Z,91104.66
2022-12-14T12:34:47.270Z,91107.25
2022-12-14T12:37:30.765Z,91097.94
2022-12-14T12:40:00.894Z,91113.25
2022-12-14T12:42:45.679Z,91112.94
2022-12-14T12:45:31.478Z,91109.31
2022-12-14T12:48:23.162Z,91111.66
2022-12-14T12:50:51.722Z,91118.63
2022-12-14T12:53:25.809Z,91116.59
2022-12-14T12:55:53.880Z,91111.16
2022-12-14T12:58:31.365Z,91117.09
2022-12-14T13:01:00.797Z,91108.06
2022-12-14T13:03:29.760Z,91124.09
2022-12-14T13:05:57.702Z,91117.09
2022-12-14T13:08:27.302Z,91120.72
2022-12-14T13:11:25.498Z,91122.28
2022-12-14T13:13:52.154Z,91115.53
2022-12-14T13:16:27.845Z,91116.03
2022-12-14T13:19:13.353Z,91112.16
2022-12-14T13:21:51.101Z,91104.19
2022-12-14T13:24:19.534Z,91110.91
2022-12-14T13:27:15.314Z,91110.94
2022-12-14T13:30:13.480Z,91117.13
2022-12-14T13:32:50.264Z,91131.88
2022-12-14T13:35:16.806Z,91124.91
2022-12-14T13:38:15.680Z,91134.47
2022-12-14T13:41:13.502Z,91133.72
2022-12-14T13:44:15.780Z,91143.53
2022-12-14T13:46:42.494Z,91123.34
2022-12-14T13:49:19.625Z,91118.69
2022-12-14T13:51:50.182Z,91116.09
2022-12-14T13:54:29.985Z,91116.63
2022-12-14T13:57:06.920Z,91124.94
2022-12-14T13:59:42.113Z,91124.66
2022-12-14T14:02:27.576Z,91109.13
2022-12-14T14:05:22.246Z,91098.00
2022-12-14T14:07:58.528Z,91088.41
2022-12-14T14:10:38.285Z,91080.13
2022-12-14T14:13:29.804Z,91083.53
2022-12-14T14:18:53.350Z,91078.84
2022-12-14T14:21:30.168Z,91079.38
2022-12-14T14:23:58.464Z,91070.03
2022-12-14T14:26:27.130Z,91071.09
2022-12-14T14:29:41.510Z,91065.38
2022-12-14T14:32:34.181Z,91080.91
2022-12-14T14:35:08.456Z,91072.34
2022-12-14T14:37:38.638Z,91074.19
2022-12-14T14:40:20.699Z,91074.44
2022-12-14T14:43:04.717Z,91064.88
2022-12-14T14:45:40.332Z,91069.00
2022-12-14T14:48:36.133Z,91066.94
2022-12-14T14:51:28.710Z,91061.75
2022-12-14T14:54:56.079Z,91059.19
2022-12-14T14:57:36.505Z,91062.78
2022-12-14T15:00:04.394Z,91064.34
2022-12-14T15:02:40.142Z,91064.84
2022-12-14T15:07:56.674Z,91068.97
2022-12-14T15:10:35.342Z,91065.84
2022-12-14T15:13:04.105Z,91066.63
2022-12-14T15:15:57.130Z,91066.59
2022-12-14T15:18:28.631Z,91072.03
2022-12-14T15:21:13.760Z,91073.03
2022-12-14T15:23:42.493Z,91078.69
2022-12-14T15:26:32.026Z,91068.13
2022-12-14T15:29:00.405Z,91068.38
2022-12-14T15:31:34.894Z,91067.63
2022-12-14T15:34:01.742Z,91067.88
2022-12-14T15:36:33.658Z,91068.94
2022-12-14T15:39:00.314Z,91060.69
2022-12-14T15:41:28.356Z,91075.19
2022-12-14T15:43:59.677Z,91062.28
2022-12-14T15:46:33.375Z,91058.09
2022-12-14T15:49:05.218Z,91060.16
2022-12-14T15:51:36.378Z,91053.22
2022-12-14T15:54:04.395Z,91056.78
2022-12-14T15:56:59.038Z,91054.47
2022-12-14T15:59:32.542Z,91067.34
2022-12-14T16:02:31.650Z,91083.09
2022-12-14T16:05:00.558Z,91083.94
2022-12-14T16:07:36.402Z,91081.72
2022-12-14T16:10:04.723Z,91074.84
2022-12-14T16:12:44.497Z,91081.31
2022-12-14T16:15:20.201Z,91075.91
2022-12-14T16:17:46.849Z,91084.66
2022-12-14T16:20:26.846Z,91078.47
2022-12-14T16:23:06.542Z,91076.16
2022-12-14T16:25:36.694Z,91070.00
2022-12-14T16:28:35.552Z,91048.28
2022-12-14T16:31:11.758Z,91058.38
2022-12-14T16:33:39.774Z,91058.63
2022-12-14T16:36:18.554Z,91052.44
2022-12-14T16:39:07.802Z,91059.44
2022-12-14T16:41:42.318Z,91063.03
2022-12-14T16:44:19.171Z,91058.34
2022-12-14T16:47:03.436Z,91051.91
2022-12-14T16:49:34.601Z,91046.75
2022-12-14T16:52:09.375Z,91048.31
2022-12-14T16:54:37.763Z,91049.59
2022-12-14T16:57:20.518Z,91056.06
2022-12-14T16:59:47.980Z,91039.50
2022-12-14T17:02:39.841Z,91051.16
2022-12-14T17:05:13.886Z,91039.72
2022-12-14T17:07:40.378Z,91019.88
2022-12-14T17:10:23.696Z,91020.66
2022-12-14T17:12:50.485Z,91015.69
2022-12-14T17:15:18.822Z,91023.47
2022-12-14T17:17:45.702Z,91035.88
2022-12-14T17:20:39.170Z,91055.75
2022-12-14T17:23:07.738Z,91072.97
2022-12-14T17:25:34.422Z,91062.44
2022-12-14T17:28:01.334Z,91072.09
2022-12-14T17:30:28.129Z,91078.53
2022-12-14T17:32:55.155Z,91063.81
2022-12-14T17:35:27.010Z,91056.56
2022-12-14T17:37:53.745Z,91062.25
2022-12-14T17:40:20.486Z,91055.81
2022-12-14T17:42:57.111Z,91063.78
2022-12-14T17:45:25.877Z,91072.53
2022-12-14T17:47:52.629Z,91066.81
2022-12-14T17:50:19.356Z,91053.69
2022-12-14T17:52:46.472Z,91058.91
2022-12-14T17:55:24.129Z,91060.69
2022-12-14T17:57:52.252Z,91053.72
2022-12-14T18:00:41.371Z,91059.66
2022-12-14T18:03:09.600Z,91053.50
2022-12-14T18:05:36.483Z,91042.63
2022-12-14T18:08:03.391Z,91040.59
2022-12-14T18:10:30.073Z,91037.47
2022-12-14T18:12:56.723Z,91034.38
2022-12-14T18:15:28.045Z,91029.72
2022-12-14T18:17:54.782Z,91018.31
2022-12-14T18:20:22.801Z,91028.41
2022-12-14T18:22:50.110Z,91020.91
2022-12-14T18:25:40.941Z,91029.44
2022-12-14T18:28:10.224Z,91026.59
2022-12-14T18:30:44.464Z,91026.59
2022-12-14T18:33:20.440Z,91025.03
2022-12-14T18:35:47.531Z,91025.28
2022-12-14T18:38:14.213Z,91011.06
2022-12-14T18:40:41.929Z,91005.91
2022-12-14T18:43:19.164Z,90989.88
2022-12-14T18:45:46.013Z,90986.28
2022-12-14T18:48:12.718Z,90983.69
2022-12-14T18:50:42.865Z,90972.56
2022-12-14T18:53:14.414Z,90972.81
2022-12-14T18:55:41.538Z,90965.59
2022-12-14T18:58:08.266Z,90965.06
2022-12-14T19:00:35.773Z,90958.88
2022-12-14T19:03:03.105Z,90956.81
2022-12-14T19:05:29.934Z,90942.34
2022-12-14T19:07:57.537Z,90936.38
2022-12-14T19:10:26.688Z,90922.69
2022-12-14T19:12:53.361Z,90923.72
2022-12-14T19:15:26.971Z,90924.47
2022-12-14T19:17:54.477Z,90916.44
2022-12-14T19:20:21.436Z,90921.38
2022-12-14T19:22:48.248Z,90921.09
2022-12-14T19:25:15.400Z,90910.75
2022-12-14T19:28:25.628Z,90915.94
2022-12-14T19:30:30.262Z,90923.41
2022-12-14T19:32:57.979Z,90922.63
2022-12-14T19:35:24.681Z,90918.47
2022-12-14T19:37:51.673Z,90921.81
2022-12-14T19:40:18.608Z,90917.09
2022-12-14T19:42:46.548Z,90900.31
2022-12-14T19:45:13.241Z,90906.09
2022-12-14T19:51:26.876Z,90913.34
2022-12-14T19:57:46.718Z,90907.69
2022-12-14T20:03:54.031Z,90891.88
2022-12-14T20:06:20.834Z,90874.03
2022-12-14T20:08:49.374Z,90881.78
2022-12-14T20:11:16.405Z,90865.28
2022-12-14T20:13:43.119Z,90864.19
2022-12-14T20:16:15.603Z,90851.25
2022-12-14T20:41:25.122Z,90839.66
2022-12-14T20:43:51.900Z,90847.13
2022-12-14T20:46:32.769Z,90834.53
2022-12-14T20:49:01.488Z,90827.03
2022-12-14T20:51:29.581Z,90823.66
2022-12-14T20:58:42.683Z,90812.06
2022-12-14T21:01:10.469Z,90796.50
2022-12-14T21:03:37.525Z,90809.22
2022-12-14T21:06:04.373Z,90806.34
2022-12-14T21:08:51.046Z,90792.88
2022-12-14T21:11:36.129Z,90782.59
2022-12-14T21:14:02.727Z,90777.13
2022-12-14T21:16:29.522Z,90755.34
2022-12-14T21:18:56.461Z,90749.50
2022-12-14T21:21:23.074Z,90751.56
2022-12-14T21:23:49.675Z,90747.13
2022-12-14T21:26:16.333Z,90767.13
2022-12-14T21:28:42.937Z,90764.00
2022-12-14T21:31:15.838Z,90740.69
2022-12-14T21:33:49.453Z,90751.84
2022-12-14T21:36:16.513Z,90756.75
2022-12-14T21:38:43.305Z,90742.72
2022-12-14T21:41:29.232Z,90726.28
2022-12-14T21:43:55.872Z,90704.63
2022-12-14T21:46:25.520Z,90724.06
2022-12-14T21:48:55.992Z,90724.84
2022-12-14T21:51:22.570Z,90727.16
2022-12-14T21:53:59.603Z,90726.34
2022-12-14T21:56:44.716Z,90721.16
2022-12-14T21:59:11.528Z,90717.81
2022-12-14T22:01:38.434Z,90714.94
2022-12-14T22:04:05.311Z,90716.97
2022-12-14T22:06:32.210Z,90709.97
2022-12-14T22:09:02.193Z,90702.47
2022-12-14T22:11:28.881Z,90712.81
2022-12-14T22:13:55.689Z,90708.09
2022-12-14T22:16:22.338Z,90691.09
2022-12-14T22:18:49.121Z,90700.69
2022-12-14T22:21:15.678Z,90709.97
2022-12-14T22:23:43.718Z,90717.22
2022-12-14T22:26:10.681Z,90726.56
2022-12-14T22:28:37.286Z,90715.94
2022-12-14T22:31:04.094Z,90708.78
2022-12-14T22:33:31.286Z,90702.03
2022-12-14T22:35:58.509Z,90679.81
2022-12-14T22:38:25.934Z,90677.25
2022-12-14T22:40:52.852Z,90683.16
2022-12-14T22:43:23.160Z,90681.06
2022-12-14T22:45:54.266Z,90668.94
2022-12-14T22:48:20.998Z,90672.22
2022-12-14T22:50:47.640Z,90653.56
2022-12-14T22:53:14.889Z,90658.25
2022-12-14T22:55:41.503Z,90658.50
2022-12-14T22:58:08.467Z,90650.75
2022-12-14T23:00:35.091Z,90638.31
2022-12-14T23:03:01.816Z,90660.81
2022-12-14T23:05:28.443Z,90651.06
2022-12-14T23:07:55.158Z,90661.88
2022-12-14T23:10:40.345Z,90662.16
2022-12-14T23:13:25.742Z,90645.88
2022-12-14T23:16:11.244Z,90641.00
2022-12-14T23:18:56.578Z,90634.84
2022-12-14T23:21:41.820Z,90624.25
2022-12-14T23:24:26.733Z,90642.88
2022-12-14T23:27:11.949Z,90642.13
2022-12-14T23:29:56.994Z,90634.44
2022-12-14T23:32:42.277Z,90636.47
2022-12-14T23:35:27.708Z,90636.94
2022-12-14T23:38:12.946Z,90643.31
2022-12-14T23:40:58.394Z,90632.78
2022-12-14T23:43:43.321Z,90618.31
2022-12-14T23:46:28.972Z,90617.81
2022-12-14T23:49:16.117Z,90607.94
2022-12-14T23:52:01.530Z,90606.81
2022-12-14T23:54:47.017Z,90604.72
2022-12-14T23:57:32.426Z,90606.28
